createdAt,value
2022-10-26T00:01:09.483Z,14.75
2022-10-26T00:03:37.003Z,14.35
2022-10-26T00:06:07.920Z,11.60
2022-10-26T00:08:35.290Z,12.07
2022-10-26T00:11:02.438Z,12.93
2022-10-26T00:13:29.661Z,13.63
2022-10-26T00:15:56.901Z,11.95
2022-10-26T00:18:24.277Z,14.18
2022-10-26T00:20:51.866Z,11.50
2022-10-26T00:23:19.100Z,11.60
2022-10-26T00:25:46.242Z,13.52
2022-10-26T00:28:13.391Z,15.20
2022-10-26T00:30:40.606Z,16.85
2022-10-26T00:33:07.761Z,15.25
2022-10-26T00:35:45.562Z,17.90
2022-10-26T00:38:13.584Z,22.83
2022-10-26T00:40:40.789Z,19.83
2022-10-26T00:43:14.475Z,14.25
2022-10-26T00:45:41.644Z,13.27
2022-10-26T00:48:09.464Z,13.02
2022-10-26T00:50:37.978Z,11.38
2022-10-26T00:53:05.423Z,11.13
2022-10-26T00:55:33.564Z,11.90
2022-10-26T00:58:00.878Z,8.55
2022-10-26T01:00:28.051Z,9.18
2022-10-26T01:02:55.750Z,11.07
2022-10-26T01:05:22.919Z,10.40
2022-10-26T01:07:50.489Z,10.98
2022-10-26T01:10:18.780Z,10.40
2022-10-26T01:12:46.217Z,11.15
2022-10-26T01:15:13.394Z,11.20
2022-10-26T01:17:40.530Z,12.02
2022-10-26T01:20:07.716Z,10.40
2022-10-26T01:22:37.931Z,10.00
2022-10-26T01:25:05.093Z,16.58
2022-10-26T01:27:32.284Z,13.40
2022-10-26T01:29:59.414Z,8.85
2022-10-26T01:32:45.217Z,12.15
2022-10-26T01:35:17.118Z,9.23
2022-10-26T01:37:48.120Z,10.52
2022-10-26T01:40:20.751Z,11.90
2022-10-26T01:42:49.023Z,10.70
2022-10-26T01:45:16.213Z,9.45
2022-10-26T01:47:43.377Z,10.18
2022-10-26T01:50:10.661Z,14.70
2022-10-26T01:52:37.842Z,12.57
2022-10-26T01:55:27.981Z,11.10
2022-10-26T01:57:55.320Z,10.48
2022-10-26T02:00:22.480Z,10.80
2022-10-26T02:02:52.802Z,9.85
2022-10-26T02:05:19.930Z,10.13
2022-10-26T02:07:47.380Z,11.60
2022-10-26T02:10:30.229Z,10.27
2022-10-26T02:13:23.601Z,12.13
2022-10-26T02:15:55.403Z,11.30
2022-10-26T02:18:28.992Z,11.25
2022-10-26T02:20:56.565Z,13.00
2022-10-26T02:23:24.676Z,17.45
2022-10-26T02:25:54.276Z,12.90
2022-10-26T02:28:22.345Z,15.45
2022-10-26T02:30:49.576Z,10.82
2022-10-26T02:33:16.719Z,13.32
2022-10-26T02:35:44.283Z,18.63
2022-10-26T02:38:11.757Z,20.33
2022-10-26T02:40:38.970Z,24.60
2022-10-26T02:43:10.575Z,20.23
2022-10-26T02:45:38.508Z,12.68
2022-10-26T02:48:05.753Z,14.85
2022-10-26T02:50:41.469Z,15.50
2022-10-26T02:53:11.351Z,52.55
2022-10-26T02:55:40.538Z,48.10
2022-10-26T02:58:09.409Z,42.78
2022-10-26T03:00:36.570Z,35.85
2022-10-26T03:03:03.790Z,34.53
2022-10-26T03:05:36.813Z,31.48
2022-10-26T03:08:04.049Z,30.08
2022-10-26T03:10:31.383Z,23.42
2022-10-26T03:12:58.758Z,22.00
2022-10-26T03:15:25.936Z,23.65
2022-10-26T03:17:53.102Z,21.58
2022-10-26T03:20:20.316Z,21.92
2022-10-26T03:22:50.338Z,19.27
2022-10-26T03:25:17.526Z,28.38
2022-10-26T03:27:44.747Z,25.60
2022-10-26T03:30:11.969Z,30.08
2022-10-26T03:32:39.202Z,38.70
2022-10-26T03:35:06.547Z,32.97
2022-10-26T03:37:33.699Z,34.40
2022-10-26T03:40:00.875Z,25.55
2022-10-26T03:42:28.095Z,23.08
2022-10-26T03:44:55.242Z,25.73
2022-10-26T03:47:22.384Z,22.05
2022-10-26T03:49:49.553Z,20.25
2022-10-26T03:52:16.709Z,18.17
2022-10-26T03:54:43.879Z,13.48
2022-10-26T03:57:11.073Z,18.73
2022-10-26T03:59:38.246Z,21.33
2022-10-26T04:02:05.386Z,17.38
2022-10-26T04:04:32.612Z,16.20
2022-10-26T04:06:59.812Z,17.90
2022-10-26T04:09:26.973Z,18.08
2022-10-26T04:11:54.186Z,21.98
2022-10-26T04:14:21.379Z,18.90
2022-10-26T04:16:48.572Z,18.02
2022-10-26T04:19:15.857Z,18.10
2022-10-26T04:21:43.001Z,25.45
2022-10-26T04:24:11.508Z,21.43
2022-10-26T04:26:38.683Z,17.05
2022-10-26T04:29:06.801Z,19.42
2022-10-26T04:31:34.288Z,17.48
2022-10-26T04:34:01.547Z,20.63
2022-10-26T04:36:28.687Z,19.20
2022-10-26T04:38:55.822Z,21.15
2022-10-26T04:41:23.074Z,18.10
2022-10-26T04:43:50.244Z,20.87
2022-10-26T04:46:17.400Z,18.73
2022-10-26T04:48:44.676Z,17.15
2022-10-26T04:51:11.942Z,21.40
2022-10-26T04:53:39.107Z,21.05
2022-10-26T04:56:06.344Z,19.48
2022-10-26T04:58:33.495Z,14.82
2022-10-26T05:01:02.376Z,17.52
2022-10-26T05:03:30.236Z,18.75
2022-10-26T05:05:59.657Z,17.95
2022-10-26T05:08:27.962Z,32.70
2022-10-26T05:10:55.420Z,29.30
2022-10-26T05:13:22.612Z,81.75
2022-10-26T05:15:49.875Z,45.05
2022-10-26T05:18:17.042Z,69.97
2022-10-26T05:20:45.181Z,50.05
2022-10-26T05:23:12.451Z,60.47
2022-10-26T05:25:39.827Z,50.73
2022-10-26T05:28:09.443Z,49.45
2022-10-26T05:30:36.728Z,46.03
2022-10-26T05:33:04.164Z,46.57
2022-10-26T05:35:31.558Z,47.25
2022-10-26T05:37:58.856Z,51.08
2022-10-26T05:40:26.099Z,49.10
2022-10-26T05:42:53.529Z,44.77
2022-10-26T05:45:20.751Z,40.70
2022-10-26T05:47:48.307Z,39.33
2022-10-26T05:50:15.692Z,34.78
2022-10-26T05:52:46.294Z,37.85
2022-10-26T05:55:14.534Z,35.00
2022-10-26T05:57:41.851Z,35.40
2022-10-26T06:00:10.332Z,37.80
2022-10-26T06:02:41.108Z,37.80
2022-10-26T06:05:09.324Z,39.22
2022-10-26T06:07:36.589Z,40.97
2022-10-26T06:10:04.508Z,38.40
2022-10-26T06:12:31.758Z,39.97
2022-10-26T06:14:59.165Z,39.15
2022-10-26T06:17:29.117Z,37.88
2022-10-26T06:20:14.917Z,51.72
2022-10-26T06:22:45.179Z,44.17
2022-10-26T06:25:15.071Z,81.35
2022-10-26T06:28:05.312Z,50.35
2022-10-26T06:30:32.476Z,62.65
2022-10-26T06:33:06.364Z,56.38
2022-10-26T06:35:48.620Z,65.28
2022-10-26T06:38:16.466Z,67.97
2022-10-26T06:40:44.538Z,58.55
2022-10-26T06:43:13.180Z,64.45
2022-10-26T06:45:41.330Z,62.63
2022-10-26T06:48:09.895Z,62.40
2022-10-26T06:50:45.401Z,56.63
2022-10-26T06:53:31.540Z,48.97
2022-10-26T06:55:59.292Z,44.22
2022-10-26T06:58:30.307Z,54.70
2022-10-26T07:00:57.691Z,42.83
2022-10-26T07:03:27.568Z,43.35
2022-10-26T07:05:54.706Z,33.00
2022-10-26T07:08:22.013Z,32.78
2022-10-26T07:10:49.754Z,27.15
2022-10-26T07:13:17.162Z,35.38
2022-10-26T07:15:45.147Z,28.92
2022-10-26T07:18:12.450Z,31.20
2022-10-26T07:20:39.942Z,26.98
2022-10-26T07:23:07.275Z,28.67
2022-10-26T07:25:34.656Z,30.75
2022-10-26T07:28:02.080Z,27.00
2022-10-26T07:30:29.460Z,29.50
2022-10-26T07:33:14.651Z,28.15
2022-10-26T07:35:41.802Z,19.88
2022-10-26T07:38:09.055Z,22.58
2022-10-26T07:40:37.239Z,16.88
2022-10-26T07:43:04.447Z,19.80
2022-10-26T07:45:31.647Z,17.63
2022-10-26T07:47:58.826Z,19.55
2022-10-26T07:50:26.029Z,21.33
2022-10-26T07:52:53.342Z,18.30
2022-10-26T07:55:20.805Z,18.98
2022-10-26T07:57:50.973Z,30.02
2022-10-26T08:00:22.003Z,31.02
2022-10-26T08:02:49.299Z,34.58
2022-10-26T08:05:16.474Z,18.92
2022-10-26T08:07:44.786Z,17.55
2022-10-26T08:10:12.203Z,16.73
2022-10-26T08:12:39.692Z,15.40
2022-10-26T08:15:07.376Z,13.90
2022-10-26T08:17:34.641Z,19.70
2022-10-26T08:20:01.955Z,17.40
2022-10-26T08:22:32.255Z,14.15
2022-10-26T08:24:59.449Z,14.02
2022-10-26T08:27:26.691Z,19.67
2022-10-26T08:29:53.867Z,15.88
2022-10-26T08:32:21.083Z,15.88
2022-10-26T08:34:48.267Z,7.75
2022-10-26T08:37:15.508Z,9.80
2022-10-26T08:39:42.697Z,8.30
2022-10-26T08:42:18.328Z,7.05
2022-10-26T08:44:49.550Z,5.80
2022-10-26T08:47:43.261Z,7.45
2022-10-26T08:50:11.391Z,7.90
2022-10-26T08:52:44.385Z,7.88
2022-10-26T08:55:13.703Z,11.23
2022-10-26T08:57:41.702Z,14.10
2022-10-26T09:00:12.807Z,7.60
2022-10-26T09:02:39.967Z,16.48
2022-10-26T09:05:13.174Z,18.83
2022-10-26T09:07:43.342Z,12.60
2022-10-26T09:10:19.368Z,11.50
2022-10-26T09:12:46.712Z,12.30
2022-10-26T09:15:19.823Z,7.05
2022-10-26T09:17:46.959Z,23.55
2022-10-26T09:20:34.413Z,13.02
2022-10-26T09:23:20.332Z,16.10
2022-10-26T09:25:49.323Z,12.20
2022-10-26T09:28:17.601Z,8.15
2022-10-26T09:30:45.367Z,7.88
2022-10-26T09:33:16.688Z,22.77
2022-10-26T09:35:50.070Z,17.65
2022-10-26T09:38:20.379Z,21.63
2022-10-26T09:40:56.774Z,8.20
2022-10-26T09:43:39.214Z,6.45
2022-10-26T09:46:06.469Z,5.60
2022-10-26T09:48:37.732Z,3.25
2022-10-26T09:51:05.125Z,5.32
2022-10-26T09:53:32.643Z,3.28
2022-10-26T09:56:02.906Z,6.20
2022-10-26T09:58:33.851Z,2.63
2022-10-26T10:01:01.071Z,2.15
2022-10-26T10:03:29.823Z,2.10
2022-10-26T10:06:16.159Z,1.38
2022-10-26T10:08:43.359Z,1.38
2022-10-26T10:11:11.748Z,2.25
2022-10-26T10:13:42.890Z,1.40
2022-10-26T10:16:14.317Z,1.63
2022-10-26T10:18:42.333Z,2.00
2022-10-26T10:21:09.933Z,1.70
2022-10-26T10:23:38.051Z,4.20
2022-10-26T10:26:11.009Z,1.20
2022-10-26T10:28:38.283Z,1.60
2022-10-26T10:31:07.015Z,2.13
2022-10-26T10:33:35.382Z,1.50
2022-10-26T10:36:02.587Z,2.70
2022-10-26T10:38:29.920Z,3.65
2022-10-26T10:40:58.452Z,3.80
2022-10-26T10:43:25.638Z,3.38
2022-10-26T10:45:54.750Z,2.35
2022-10-26T10:48:39.505Z,2.50
2022-10-26T10:51:12.390Z,4.97
2022-10-26T10:53:52.313Z,3.60
2022-10-26T10:56:19.451Z,1.88
2022-10-26T10:58:46.608Z,2.50
2022-10-26T11:01:14.791Z,49.42
2022-10-26T11:03:51.267Z,9.23
2022-10-26T11:06:19.715Z,2.22
2022-10-26T11:08:50.626Z,2.30
2022-10-26T11:11:22.652Z,3.03
2022-10-26T11:14:08.367Z,2.30
2022-10-26T11:16:42.996Z,2.47
2022-10-26T11:19:16.371Z,2.45
2022-10-26T11:21:43.551Z,3.40
2022-10-26T11:24:13.432Z,2.70
2022-10-26T11:27:15.964Z,2.60
2022-10-26T11:29:49.054Z,1.30
2022-10-26T11:32:30.468Z,2.03
2022-10-26T11:35:16.431Z,3.13
2022-10-26T11:37:49.330Z,1.90
2022-10-26T11:40:35.158Z,3.58
2022-10-26T11:43:13.428Z,2.95
2022-10-26T11:45:45.020Z,3.63
2022-10-26T11:48:15.399Z,4.93
2022-10-26T11:50:44.337Z,7.65
2022-10-26T11:53:13.754Z,4.22
2022-10-26T11:55:41.262Z,4.05
2022-10-26T11:58:11.615Z,3.25
2022-10-26T12:00:59.103Z,2.47
2022-10-26T12:03:29.688Z,3.60
2022-10-26T12:05:56.906Z,7.13
2022-10-26T12:08:27.627Z,1.80
2022-10-26T12:11:00.894Z,3.72
2022-10-26T12:13:34.422Z,2.83
2022-10-26T12:16:14.571Z,2.72
2022-10-26T12:19:01.777Z,13.38
2022-10-26T12:21:29.275Z,7.72
2022-10-26T12:24:03.233Z,3.25
2022-10-26T12:26:30.383Z,6.25
2022-10-26T12:29:03.447Z,3.00
2022-10-26T12:31:33.810Z,2.40
2022-10-26T12:34:01.203Z,1.88
2022-10-26T12:36:47.257Z,2.72
2022-10-26T12:39:30.639Z,5.70
2022-10-26T12:41:58.819Z,6.88
2022-10-26T12:44:39.601Z,2.38
2022-10-26T12:47:06.842Z,2.53
2022-10-26T12:49:52.567Z,3.35
2022-10-26T12:52:23.815Z,2.45
2022-10-26T12:54:56.016Z,5.40
2022-10-26T12:57:34.891Z,37.78
2022-10-26T13:00:02.774Z,4.22
2022-10-26T13:02:48.993Z,3.72
2022-10-26T13:05:30.381Z,3.95
2022-10-26T13:08:04.096Z,3.63
2022-10-26T13:10:31.253Z,2.22
2022-10-26T13:12:59.281Z,1.98
2022-10-26T13:15:34.998Z,4.13
2022-10-26T13:18:03.323Z,5.07
2022-10-26T13:20:31.025Z,12.27
2022-10-26T13:22:58.288Z,12.35
2022-10-26T13:25:26.101Z,11.45
2022-10-26T13:28:00.519Z,5.38
2022-10-26T13:30:33.752Z,12.90
2022-10-26T13:33:01.167Z,11.40
2022-10-26T13:35:28.306Z,16.17
2022-10-26T13:37:55.878Z,13.73
2022-10-26T13:40:24.178Z,12.77
2022-10-26T13:42:53.365Z,15.32
2022-10-26T13:45:21.813Z,6.72
2022-10-26T13:48:01.173Z,6.30
2022-10-26T13:50:32.031Z,10.98
2022-10-26T13:53:00.709Z,10.35
2022-10-26T13:55:32.254Z,4.03
2022-10-26T13:58:18.413Z,6.07
2022-10-26T14:01:04.640Z,3.72
2022-10-26T14:03:31.915Z,4.60
2022-10-26T14:05:59.045Z,3.88
2022-10-26T14:08:26.258Z,4.72
2022-10-26T14:10:57.307Z,4.25
2022-10-26T14:13:27.701Z,3.83
2022-10-26T14:15:55.678Z,4.47
2022-10-26T14:18:26.550Z,5.60
2022-10-26T14:21:04.378Z,4.88
2022-10-26T14:23:38.241Z,4.95
2022-10-26T14:26:05.450Z,11.60
2022-10-26T14:28:33.367Z,4.63
2022-10-26T14:31:23.585Z,4.38
2022-10-26T14:33:51.049Z,5.35
2022-10-26T14:36:18.230Z,6.10
2022-10-26T14:38:45.916Z,8.45
2022-10-26T14:41:13.337Z,5.55
2022-10-26T14:43:40.525Z,4.80
2022-10-26T14:46:07.704Z,6.72
2022-10-26T14:48:35.284Z,5.07
2022-10-26T14:51:12.779Z,8.75
2022-10-26T14:53:40.514Z,14.38
2022-10-26T14:56:17.913Z,8.25
2022-10-26T14:58:45.218Z,14.82
2022-10-26T15:01:24.589Z,7.75
2022-10-26T15:04:01.569Z,7.93
2022-10-26T15:06:28.741Z,7.32
2022-10-26T15:08:59.672Z,14.63
2022-10-26T15:11:29.978Z,8.65
2022-10-26T15:13:57.133Z,9.27
2022-10-26T15:16:25.182Z,11.13
2022-10-26T15:18:54.686Z,13.13
2022-10-26T15:21:35.663Z,15.05
2022-10-26T15:24:02.831Z,12.70
2022-10-26T15:26:30.009Z,16.08
2022-10-26T15:28:57.402Z,14.43
2022-10-26T15:31:28.958Z,19.00
2022-10-26T15:33:56.078Z,19.30
2022-10-26T15:36:23.211Z,21.42
2022-10-26T15:38:50.467Z,21.00
2022-10-26T15:41:33.523Z,20.30
2022-10-26T15:44:01.488Z,57.63
2022-10-26T15:46:33.269Z,19.73
2022-10-26T15:49:01.115Z,22.85
2022-10-26T15:51:31.129Z,25.30
2022-10-26T15:53:58.780Z,27.80
2022-10-26T15:56:26.259Z,31.85
2022-10-26T15:58:53.759Z,33.70
2022-10-26T16:01:21.884Z,31.58
2022-10-26T16:03:49.181Z,30.02
2022-10-26T16:06:27.318Z,27.50
2022-10-26T16:08:54.690Z,34.70
2022-10-26T16:11:21.850Z,27.13
2022-10-26T16:16:18.030Z,54.00
2022-10-26T16:18:45.243Z,51.63
2022-10-26T16:21:16.487Z,58.45
2022-10-26T16:23:43.946Z,44.85
2022-10-26T16:26:11.160Z,68.00
2022-10-26T16:28:38.425Z,69.80
2022-10-26T16:31:06.430Z,61.28
2022-10-26T16:33:35.190Z,73.28
2022-10-26T16:36:02.396Z,54.05
2022-10-26T16:38:31.583Z,60.63
2022-10-26T16:41:08.484Z,59.80
2022-10-26T16:43:36.566Z,114.00
2022-10-26T16:46:07.702Z,56.13
2022-10-26T16:48:38.250Z,65.65
2022-10-26T16:51:06.579Z,65.30
2022-10-26T16:53:33.803Z,60.20
2022-10-26T16:56:04.625Z,55.10
2022-10-26T16:58:34.355Z,58.25
2022-10-26T17:01:04.129Z,58.15
2022-10-26T17:03:31.324Z,50.92
2022-10-26T17:05:58.427Z,43.03
2022-10-26T17:08:26.095Z,24.35
2022-10-26T17:10:53.611Z,21.88
2022-10-26T17:13:20.822Z,62.13
2022-10-26T17:15:48.077Z,77.25
2022-10-26T17:18:15.362Z,70.53
2022-10-26T17:20:48.968Z,61.58
2022-10-26T17:23:16.166Z,53.33
2022-10-26T17:25:43.318Z,61.40
2022-10-26T17:28:10.446Z,52.85
2022-10-26T17:30:38.003Z,59.53
2022-10-26T17:33:05.182Z,68.22
2022-10-26T17:35:35.343Z,54.83
2022-10-26T17:38:02.574Z,58.10
2022-10-26T17:40:29.739Z,57.65
2022-10-26T17:42:56.884Z,57.33
2022-10-26T17:45:24.145Z,59.55
2022-10-26T17:47:51.572Z,88.80
2022-10-26T17:50:18.875Z,117.10
2022-10-26T17:52:46.068Z,98.55
2022-10-26T17:55:13.234Z,73.82
2022-10-26T17:57:40.402Z,92.63
2022-10-26T18:00:07.835Z,288.63
2022-10-26T18:02:37.460Z,90.72
2022-10-26T18:05:06.894Z,106.00
2022-10-26T18:07:35.088Z,122.97
2022-10-26T18:10:13.913Z,98.15
2022-10-26T18:12:49.744Z,101.13
2022-10-26T18:15:17.154Z,121.00
2022-10-26T18:17:45.129Z,113.47
2022-10-26T18:20:12.425Z,106.72
2022-10-26T18:22:39.538Z,126.60
2022-10-26T18:25:06.728Z,106.43
2022-10-26T18:27:33.881Z,101.57
2022-10-26T18:30:01.059Z,86.38
2022-10-26T18:32:28.586Z,85.47
2022-10-26T18:34:55.734Z,78.00
2022-10-26T18:37:22.864Z,90.15
2022-10-26T18:39:50.005Z,93.30
2022-10-26T18:42:17.179Z,83.28
2022-10-26T18:44:44.381Z,79.90
2022-10-26T18:47:11.531Z,73.18
2022-10-26T18:49:41.737Z,70.15
2022-10-26T18:52:09.207Z,92.78
2022-10-26T18:54:36.345Z,77.90
2022-10-26T18:57:03.528Z,79.60
2022-10-26T18:59:30.883Z,76.28
2022-10-26T19:01:58.111Z,89.72
2022-10-26T19:04:25.430Z,83.90
2022-10-26T19:06:52.575Z,71.03
2022-10-26T19:09:19.752Z,66.72
2022-10-26T19:11:46.919Z,64.32
2022-10-26T19:14:14.089Z,64.20
2022-10-26T19:16:46.463Z,53.95
2022-10-26T19:19:14.642Z,64.45
2022-10-26T19:21:41.804Z,58.85
2022-10-26T19:24:11.600Z,52.13
2022-10-26T19:26:42.359Z,67.30
2022-10-26T19:29:12.495Z,66.25
2022-10-26T19:31:39.664Z,97.05
2022-10-26T19:34:06.892Z,93.30
2022-10-26T19:36:34.150Z,84.35
2022-10-26T19:39:01.999Z,77.70
2022-10-26T19:41:31.195Z,77.57
2022-10-26T19:46:27.264Z,120.38
2022-10-26T19:48:55.081Z,132.75
2022-10-26T19:51:22.604Z,243.82
2022-10-26T19:53:49.847Z,144.13
2022-10-26T19:56:20.525Z,146.30
2022-10-26T19:58:48.043Z,121.53
2022-10-26T20:01:15.815Z,122.65
2022-10-26T20:03:43.158Z,107.97
2022-10-26T20:06:14.021Z,92.78
2022-10-26T20:08:41.697Z,98.60
2022-10-26T20:11:11.629Z,98.53
2022-10-26T20:13:41.991Z,85.30
2022-10-26T20:16:09.152Z,68.38
2022-10-26T20:18:36.333Z,68.25
2022-10-26T20:21:07.211Z,74.72
2022-10-26T20:23:34.339Z,70.78
2022-10-26T20:26:03.250Z,83.15
2022-10-26T20:28:30.723Z,168.07
2022-10-26T20:30:59.424Z,155.80
2022-10-26T20:33:26.986Z,124.85
2022-10-26T20:35:57.828Z,106.65
2022-10-26T20:38:25.254Z,102.80
2022-10-26T20:40:56.450Z,96.97
2022-10-26T20:43:23.828Z,93.30
2022-10-26T20:45:51.152Z,76.88
2022-10-26T20:48:18.542Z,93.70
2022-10-26T20:50:55.045Z,79.70
2022-10-26T20:53:29.339Z,69.13
2022-10-26T20:56:00.334Z,62.63
2022-10-26T20:58:40.602Z,60.22
2022-10-26T21:01:17.496Z,66.13
2022-10-26T21:03:44.731Z,69.07
2022-10-26T21:06:11.910Z,62.38
2022-10-26T21:08:39.139Z,71.05
2022-10-26T21:11:06.384Z,65.50
2022-10-26T21:13:33.550Z,63.45
2022-10-26T21:16:03.689Z,53.47
2022-10-26T21:18:30.883Z,49.83
2022-10-26T21:20:58.728Z,49.78
2022-10-26T21:23:29.386Z,53.63
2022-10-26T21:25:56.544Z,51.47
2022-10-26T21:28:23.726Z,59.17
2022-10-26T21:30:50.912Z,50.97
2022-10-26T21:33:21.278Z,53.03
2022-10-26T21:35:57.274Z,58.40
2022-10-26T21:38:24.402Z,61.95
2022-10-26T21:40:51.558Z,50.33
2022-10-26T21:43:18.976Z,49.35
2022-10-26T21:45:46.130Z,46.47
2022-10-26T21:48:13.280Z,51.10
2022-10-26T21:50:42.191Z,44.33
2022-10-26T21:53:09.317Z,42.67
2022-10-26T21:55:36.465Z,49.65
2022-10-26T21:58:03.787Z,45.65
2022-10-26T22:00:30.923Z,43.80
2022-10-26T22:02:58.078Z,38.60
2022-10-26T22:05:25.315Z,34.00
2022-10-26T22:07:53.243Z,32.30
2022-10-26T22:10:20.637Z,27.77
2022-10-26T22:12:47.823Z,29.35
2022-10-26T22:15:14.971Z,38.70
2022-10-26T22:17:42.149Z,28.33
2022-10-26T22:20:09.841Z,32.23
2022-10-26T22:22:37.064Z,34.95
2022-10-26T22:25:05.667Z,45.13
2022-10-26T22:27:32.913Z,57.80
2022-10-26T22:30:00.144Z,51.13
2022-10-26T22:32:27.287Z,49.58
2022-10-26T22:35:10.404Z,48.50
2022-10-26T22:37:44.358Z,51.97
2022-10-26T22:40:11.963Z,49.35
2022-10-26T22:42:39.107Z,45.92
2022-10-26T22:45:06.504Z,42.00
2022-10-26T22:47:33.672Z,38.83
2022-10-26T22:50:00.818Z,40.60
2022-10-26T22:52:27.993Z,44.63
2022-10-26T22:54:55.248Z,37.07
2022-10-26T22:57:22.381Z,40.45
2022-10-26T22:59:49.518Z,38.53
2022-10-26T23:02:16.741Z,33.28
2022-10-26T23:04:43.953Z,34.50
2022-10-26T23:07:11.121Z,34.37
2022-10-26T23:09:38.316Z,33.00
2022-10-26T23:12:05.608Z,37.10
2022-10-26T23:14:32.747Z,39.77
2022-10-26T23:16:59.939Z,35.03
2022-10-26T23:19:27.124Z,33.30
2022-10-26T23:21:54.255Z,30.70
2022-10-26T23:24:21.446Z,29.47
2022-10-26T23:26:48.584Z,33.50
2022-10-26T23:29:16.975Z,29.60
2022-10-26T23:31:44.147Z,43.70
2022-10-26T23:34:11.322Z,37.50
2022-10-26T23:36:38.479Z,37.77
2022-10-26T23:39:05.654Z,36.10
2022-10-26T23:41:32.842Z,40.07
2022-10-26T23:43:59.991Z,31.80
2022-10-26T23:48:59.202Z,32.05
2022-10-26T23:51:26.360Z,34.33
2022-10-26T23:53:53.519Z,34.97
2022-10-26T23:56:20.650Z,34.27
2022-10-26T23:58:50.499Z,27.73
